Airport Name : Campo Dell Oro

Other Name : Ajaccio

ICAO : LFKJ

IATA : AJA

FAA :

Latitude : 41.923637

Longitude : 8.802917

Country : France

Local Date and Time : 1/21/2018 7:35:00 PM

 

TAF (Terminal Aerodrome Forecast)

TAF LFKJ 211400Z 2115/2215 24008KT CAVOK BECMG 2122/2124 05004KT BKN014 BECMG 2210/2211 24010KT

 

METAR (METeorological Aerodrome Report)

LFKJ 211830Z AUTO 04004KT CAVOK 11/07 Q1012 NOSIG

LFKJ 211800Z AUTO 03005KT CAVOK 11/08 Q1012 NOSIG

LFKJ 211730Z AUTO 07003KT 030V100 CAVOK 12/08 Q1011 NOSIG

LFKJ 211700Z AUTO 14003KT 100V170 9000 NSC 13/09 Q1011 NOSIG

LFKJ 211630Z AUTO 19005KT 160V220 9000 NSC 14/09 Q1011 NOSIG

LFKJ 211600Z AUTO 20006KT 160V240 8000 NSC 15/10 Q1010 NOSIG

LFKJ 211530Z AUTO 22005KT 180V250 CAVOK 15/10 Q1010 NOSIG

LFKJ 211500Z AUTO 19007KT 160V220 9000 NSC 16/10 Q1010 NOSIG